createdAt,value
2019-06-26T00:00:20.610Z,17.20
2019-06-26T00:02:49.244Z,17.20
2019-06-26T00:05:17.913Z,17.30
2019-06-26T00:07:46.482Z,17.40
2019-06-26T00:10:15.303Z,17.50
2019-06-26T00:12:44.333Z,17.50
2019-06-26T00:15:13.480Z,17.60
2019-06-26T00:17:42.193Z,17.70
2019-06-26T00:20:11.543Z,17.70
2019-06-26T00:22:40.197Z,17.80
2019-06-26T00:25:08.949Z,17.80
2019-06-26T00:27:37.503Z,17.80
2019-06-26T00:30:07.433Z,17.90
2019-06-26T00:32:36.170Z,17.90
2019-06-26T00:35:05.491Z,17.90
2019-06-26T00:37:34.157Z,17.90
2019-06-26T00:40:03.272Z,17.90
2019-06-26T00:42:32.111Z,17.90
2019-06-26T00:45:00.743Z,17.80
2019-06-26T00:47:29.472Z,17.80
2019-06-26T00:49:58.026Z,17.80
2019-06-26T00:52:26.721Z,17.80
2019-06-26T00:54:55.315Z,17.70
2019-06-26T00:57:24.045Z,17.70
2019-06-26T00:59:52.774Z,17.70
2019-06-26T01:02:21.665Z,17.70
2019-06-26T01:04:57.926Z,17.70
2019-06-26T01:07:26.542Z,17.70
2019-06-26T01:09:55.267Z,17.60
2019-06-26T01:12:24.229Z,17.60
2019-06-26T01:14:52.860Z,17.60
2019-06-26T01:17:21.405Z,17.60
2019-06-26T01:19:50.025Z,17.60
2019-06-26T01:22:18.718Z,17.60
2019-06-26T01:24:47.443Z,17.60
2019-06-26T01:27:16.061Z,17.60
2019-06-26T01:29:44.683Z,17.60
2019-06-26T01:32:13.281Z,17.60
2019-06-26T01:34:41.881Z,17.60
2019-06-26T01:37:10.582Z,17.60
2019-06-26T01:39:39.206Z,17.60
2019-06-26T01:42:07.946Z,17.60
2019-06-26T01:44:36.635Z,17.50
2019-06-26T01:47:05.485Z,17.50
2019-06-26T01:49:34.123Z,17.50
2019-06-26T01:52:02.914Z,17.50
2019-06-26T01:54:31.524Z,17.50
2019-06-26T01:57:00.132Z,17.40
2019-06-26T01:59:28.802Z,17.40
2019-06-26T02:01:57.512Z,17.30
2019-06-26T02:04:26.114Z,17.30
2019-06-26T02:06:54.914Z,17.40
2019-06-26T02:09:23.627Z,17.40
2019-06-26T02:11:52.301Z,17.40
2019-06-26T02:14:30.599Z,17.40
2019-06-26T02:16:51.176Z,17.30
2019-06-26T02:19:20.740Z,17.30
2019-06-26T02:21:49.348Z,17.30
2019-06-26T02:24:18.096Z,17.20
2019-06-26T02:26:46.798Z,17.20
2019-06-26T02:29:15.348Z,17.10
2019-06-26T02:31:44.042Z,17.00
2019-06-26T02:34:12.644Z,17.00
2019-06-26T02:36:41.301Z,17.00
2019-06-26T02:39:09.955Z,17.00
2019-06-26T02:41:38.611Z,17.00
2019-06-26T02:44:07.611Z,17.00
2019-06-26T02:46:36.171Z,17.00
2019-06-26T02:49:04.859Z,17.10
2019-06-26T02:51:33.602Z,17.10
2019-06-26T02:54:02.386Z,17.10
2019-06-26T02:56:31.083Z,17.20
2019-06-26T02:58:59.875Z,17.20
2019-06-26T03:01:28.763Z,17.30
2019-06-26T03:03:57.391Z,17.40
2019-06-26T03:06:26.133Z,17.50
2019-06-26T03:08:54.838Z,17.60
2019-06-26T03:11:23.494Z,17.70
2019-06-26T03:13:52.242Z,17.70
2019-06-26T03:16:21.026Z,17.70
2019-06-26T03:18:49.843Z,17.80
2019-06-26T03:21:18.549Z,17.80
2019-06-26T03:23:47.292Z,17.90
2019-06-26T03:26:15.904Z,17.80
2019-06-26T03:28:44.511Z,17.80
2019-06-26T03:31:13.202Z,17.80
2019-06-26T03:33:41.909Z,17.90
2019-06-26T03:36:10.673Z,17.90
2019-06-26T03:38:39.414Z,17.90
2019-06-26T03:41:08.016Z,17.90
2019-06-26T03:43:36.671Z,18.00
2019-06-26T03:46:05.401Z,18.10
2019-06-26T03:48:33.977Z,18.20
2019-06-26T03:51:02.556Z,18.20
2019-06-26T03:53:31.141Z,18.20
2019-06-26T03:55:59.887Z,18.20
2019-06-26T03:58:28.590Z,18.30
2019-06-26T04:00:57.442Z,18.30
2019-06-26T04:03:26.099Z,18.30
2019-06-26T04:05:54.663Z,18.40
2019-06-26T04:08:23.316Z,18.40
2019-06-26T04:10:52.114Z,18.40
2019-06-26T04:13:20.991Z,18.60
2019-06-26T04:15:51.043Z,18.60
2019-06-26T04:18:19.893Z,18.70
2019-06-26T04:20:48.501Z,18.80
2019-06-26T04:23:17.282Z,18.90
2019-06-26T04:25:45.926Z,18.80
2019-06-26T04:28:14.534Z,18.90
2019-06-26T04:30:43.097Z,19.00
2019-06-26T04:33:11.835Z,19.20
2019-06-26T04:35:40.489Z,19.30
2019-06-26T04:38:09.406Z,19.50
2019-06-26T04:40:37.983Z,19.60
2019-06-26T04:43:06.651Z,19.60
2019-06-26T04:45:35.340Z,19.70
2019-06-26T04:48:07.100Z,19.80
2019-06-26T04:50:34.363Z,19.70
2019-06-26T04:53:03.057Z,19.70
2019-06-26T04:55:31.632Z,19.80
2019-06-26T04:58:00.301Z,20.00
2019-06-26T05:00:28.900Z,19.90
2019-06-26T05:02:57.822Z,20.10
2019-06-26T05:05:38.965Z,20.10
2019-06-26T05:07:56.937Z,20.30
2019-06-26T05:10:25.550Z,20.30
2019-06-26T05:12:54.137Z,20.30
2019-06-26T05:15:23.880Z,20.40
2019-06-26T05:17:52.510Z,20.50
2019-06-26T05:20:21.257Z,20.70
2019-06-26T05:22:49.953Z,20.80
2019-06-26T05:25:18.703Z,20.90
2019-06-26T05:27:47.455Z,20.90
2019-06-26T05:30:16.526Z,20.80
2019-06-26T05:32:45.369Z,20.90
2019-06-26T05:35:14.447Z,21.00
2019-06-26T05:37:43.146Z,21.00
2019-06-26T05:40:12.827Z,21.00
2019-06-26T05:42:41.531Z,21.00
2019-06-26T05:45:12.008Z,21.00
2019-06-26T05:47:40.797Z,21.00
2019-06-26T05:50:12.365Z,21.10
2019-06-26T05:52:43.005Z,21.10
2019-06-26T05:55:13.059Z,21.00
2019-06-26T05:57:42.236Z,21.10
2019-06-26T06:00:11.386Z,21.30
2019-06-26T06:02:40.119Z,21.60
2019-06-26T06:05:10.018Z,21.70
2019-06-26T06:07:38.654Z,21.80
2019-06-26T06:10:07.762Z,21.90
2019-06-26T06:12:37.457Z,21.80
2019-06-26T06:15:07.917Z,21.70
2019-06-26T06:17:36.897Z,21.80
2019-06-26T06:20:06.686Z,21.90
2019-06-26T06:22:35.366Z,22.00
2019-06-26T06:25:04.858Z,21.80
2019-06-26T06:27:33.485Z,21.90
2019-06-26T06:30:02.621Z,22.00
2019-06-26T06:32:31.420Z,22.20
2019-06-26T06:34:59.976Z,22.40
2019-06-26T06:37:28.638Z,22.50
2019-06-26T06:39:57.346Z,22.60
2019-06-26T06:42:26.010Z,22.80
2019-06-26T06:44:54.598Z,22.90
2019-06-26T06:47:23.191Z,22.90
2019-06-26T06:49:51.761Z,23.00
2019-06-26T06:52:20.422Z,22.80
2019-06-26T06:54:49.019Z,23.00
2019-06-26T06:57:17.686Z,23.20
2019-06-26T06:59:46.391Z,23.30
2019-06-26T07:02:15.056Z,23.40
2019-06-26T07:04:43.715Z,23.40
2019-06-26T07:07:12.341Z,23.30
2019-06-26T07:09:40.996Z,23.60
2019-06-26T07:12:09.630Z,23.80
2019-06-26T07:14:38.264Z,24.00
2019-06-26T07:17:19.837Z,24.20
2019-06-26T07:19:37.296Z,23.80
2019-06-26T07:22:07.331Z,24.10
2019-06-26T07:24:36.188Z,24.20
2019-06-26T07:27:04.916Z,24.20
2019-06-26T07:29:33.520Z,24.20
2019-06-26T07:32:02.137Z,24.10
2019-06-26T07:34:30.761Z,24.20
2019-06-26T07:36:59.459Z,24.50
2019-06-26T07:39:28.080Z,24.90
2019-06-26T07:41:56.752Z,25.10
2019-06-26T07:44:25.438Z,25.40
2019-06-26T07:46:53.981Z,25.60
2019-06-26T07:49:22.621Z,25.70
2019-06-26T07:51:51.255Z,25.70
2019-06-26T07:54:20.068Z,26.20
2019-06-26T07:56:48.625Z,26.40
2019-06-26T07:59:17.297Z,26.40
2019-06-26T08:01:45.912Z,26.80
2019-06-26T08:04:14.509Z,26.70
2019-06-26T08:06:43.174Z,26.40
2019-06-26T08:09:11.772Z,26.70
2019-06-26T08:11:40.382Z,27.40
2019-06-26T08:14:08.997Z,27.40
2019-06-26T08:16:37.718Z,27.60
2019-06-26T08:19:06.397Z,27.80
2019-06-26T08:21:35.034Z,28.00
2019-06-26T08:24:03.845Z,28.50
2019-06-26T08:26:32.407Z,28.90
2019-06-26T08:29:01.048Z,28.70
2019-06-26T08:31:29.657Z,28.50
2019-06-26T08:33:58.395Z,27.90
2019-06-26T08:36:27.120Z,28.40
2019-06-26T08:38:55.760Z,28.60
2019-06-26T08:41:24.352Z,28.00
2019-06-26T08:43:53.251Z,28.20
2019-06-26T08:46:22.167Z,28.60
2019-06-26T08:48:52.038Z,28.40
2019-06-26T08:51:21.993Z,28.50
2019-06-26T08:53:50.794Z,28.80
2019-06-26T09:23:32.813Z,29.00
2019-06-26T09:28:30.089Z,31.60
2019-06-26T09:30:58.726Z,31.50
2019-06-26T09:33:27.549Z,31.90
2019-06-26T13:48:15.455Z,32.40
2019-06-26T13:50:44.063Z,31.30
2019-06-26T13:53:12.882Z,31.00
2019-06-26T13:55:42.070Z,30.90
2019-06-26T13:58:10.754Z,30.90
2019-06-26T14:00:40.148Z,31.00
2019-06-26T14:03:08.990Z,31.10
2019-06-26T14:05:37.893Z,30.70
2019-06-26T14:08:06.786Z,30.50
2019-06-26T14:10:35.647Z,30.40
2019-06-26T14:13:04.494Z,30.30
2019-06-26T14:15:33.230Z,30.60
2019-06-26T14:18:01.916Z,30.30
2019-06-26T14:20:30.602Z,30.20
2019-06-26T14:22:59.236Z,30.10
2019-06-26T14:25:28.871Z,30.20
2019-06-26T14:27:57.617Z,30.50
2019-06-26T14:30:27.966Z,30.70
2019-06-26T14:32:56.891Z,30.70
2019-06-26T14:35:25.618Z,30.50
2019-06-26T14:37:54.257Z,30.70
2019-06-26T14:40:23.093Z,30.90
2019-06-26T14:42:51.760Z,30.90
2019-06-26T14:45:20.671Z,31.10
2019-06-26T14:50:17.806Z,31.20
2019-06-26T14:52:46.464Z,31.10
2019-06-26T14:55:15.326Z,30.80
2019-06-26T14:57:43.981Z,31.00
2019-06-26T15:00:13.183Z,30.70
2019-06-26T15:02:41.861Z,30.10
2019-06-26T15:05:10.945Z,29.70
2019-06-26T15:07:39.527Z,29.40
2019-06-26T15:10:08.778Z,28.70
2019-06-26T15:12:37.516Z,28.50
2019-06-26T15:15:06.788Z,28.60
2019-06-26T15:17:35.482Z,28.50
2019-06-26T15:20:05.722Z,28.40
2019-06-26T15:22:34.533Z,28.30
2019-06-26T15:25:04.326Z,28.30
2019-06-26T15:27:33.099Z,28.30
2019-06-26T15:30:01.702Z,28.20
2019-06-26T15:32:30.488Z,28.20
2019-06-26T15:34:59.088Z,28.10
2019-06-26T15:37:27.806Z,28.00
2019-06-26T15:39:56.464Z,27.90
2019-06-26T15:42:25.086Z,28.00
2019-06-26T15:44:53.749Z,27.90
2019-06-26T15:47:22.447Z,27.80
2019-06-26T15:49:51.190Z,27.90
2019-06-26T15:52:19.881Z,27.80
2019-06-26T15:54:48.441Z,27.80
2019-06-26T15:57:17.093Z,27.60
2019-06-26T15:59:45.813Z,27.30
2019-06-26T16:02:14.494Z,27.20
2019-06-26T16:04:43.187Z,27.10
2019-06-26T16:07:12.185Z,27.00
2019-06-26T16:09:40.899Z,27.00
2019-06-26T16:12:09.483Z,26.90
2019-06-26T16:14:38.216Z,26.80
2019-06-26T16:17:08.493Z,26.80
2019-06-26T16:19:37.310Z,26.50
2019-06-26T16:22:06.162Z,26.40
2019-06-26T16:24:34.949Z,26.40
2019-06-26T16:27:03.694Z,26.40
2019-06-26T16:29:32.310Z,26.30
2019-06-26T16:32:00.985Z,26.40
2019-06-26T16:34:29.749Z,26.30
2019-06-26T16:36:58.425Z,26.30
2019-06-26T16:39:27.553Z,26.10
2019-06-26T16:41:56.259Z,26.00
2019-06-26T16:44:24.948Z,26.00
2019-06-26T16:46:53.544Z,26.00
2019-06-26T16:49:22.243Z,26.10
2019-06-26T16:51:51.091Z,25.90
2019-06-26T16:54:20.083Z,25.90
2019-06-26T16:56:48.737Z,25.90
2019-06-26T16:59:17.327Z,25.80
2019-06-26T17:01:46.066Z,25.70
2019-06-26T17:04:14.693Z,25.60
2019-06-26T17:06:43.310Z,25.60
2019-06-26T17:09:12.097Z,25.50
2019-06-26T17:11:40.911Z,25.40
2019-06-26T17:14:09.552Z,25.30
2019-06-26T17:16:38.387Z,25.10
2019-06-26T17:19:07.118Z,25.10
2019-06-26T17:21:35.697Z,25.00
2019-06-26T17:24:04.362Z,25.00
2019-06-26T17:26:33.111Z,25.00
2019-06-26T17:29:01.716Z,24.80
2019-06-26T17:31:30.350Z,24.70
2019-06-26T17:33:58.945Z,24.70
2019-06-26T17:36:28.941Z,24.70
2019-06-26T17:38:57.649Z,24.60
2019-06-26T17:41:26.338Z,24.50
2019-06-26T17:43:54.899Z,24.50
2019-06-26T17:46:23.593Z,24.40
2019-06-26T17:48:52.292Z,24.40
2019-06-26T17:51:20.928Z,24.40
2019-06-26T17:53:49.634Z,24.40
2019-06-26T17:56:18.300Z,24.40
2019-06-26T17:58:46.868Z,24.40
2019-06-26T18:01:15.520Z,24.40
2019-06-26T18:03:44.152Z,24.40
2019-06-26T18:06:13.239Z,24.20
2019-06-26T18:08:41.793Z,24.00
2019-06-26T18:11:10.579Z,23.80
2019-06-26T18:13:39.213Z,23.20
2019-06-26T18:16:07.953Z,22.70
2019-06-26T18:18:36.582Z,22.30
2019-06-26T18:21:05.444Z,21.80
2019-06-26T18:23:38.252Z,21.80
2019-06-26T18:26:12.865Z,21.90
2019-06-26T18:28:34.739Z,21.90
2019-06-26T18:31:03.344Z,21.70
2019-06-26T18:33:32.001Z,21.60
2019-06-26T18:36:00.663Z,21.50
2019-06-26T18:38:29.410Z,21.30
2019-06-26T18:40:58.068Z,21.10
2019-06-26T18:43:26.820Z,21.10
2019-06-26T18:45:55.435Z,21.10
2019-06-26T18:48:25.025Z,21.00
2019-06-26T18:50:53.806Z,21.00
2019-06-26T18:53:22.465Z,20.90
2019-06-26T18:55:51.126Z,20.70
2019-06-26T18:58:19.816Z,20.70
2019-06-26T19:00:48.500Z,20.80
2019-06-26T19:03:17.284Z,20.80
2019-06-26T19:05:45.945Z,20.80
2019-06-26T19:08:14.587Z,20.80
2019-06-26T19:10:43.952Z,20.80
2019-06-26T19:13:12.538Z,20.60
2019-06-26T19:15:41.205Z,20.60
2019-06-26T19:18:09.803Z,20.60
2019-06-26T19:20:38.393Z,20.60
2019-06-26T19:23:06.994Z,20.40
2019-06-26T19:25:35.627Z,20.40
2019-06-26T19:28:04.489Z,20.50
2019-06-26T19:30:33.527Z,20.40
2019-06-26T19:33:02.085Z,20.40
2019-06-26T19:35:30.900Z,20.30
2019-06-26T19:37:59.543Z,20.30
2019-06-26T19:40:28.314Z,20.20
2019-06-26T19:42:57.150Z,20.20
2019-06-26T19:45:25.994Z,20.30
2019-06-26T19:47:54.809Z,20.20
2019-06-26T19:50:23.980Z,20.20
2019-06-26T19:52:52.674Z,20.20
2019-06-26T19:55:21.433Z,20.10
2019-06-26T19:57:50.493Z,20.10
2019-06-26T20:00:19.344Z,20.10
2019-06-26T20:02:48.012Z,20.10
2019-06-26T20:05:16.654Z,20.00
2019-06-26T20:07:45.334Z,20.00
2019-06-26T20:10:15.451Z,20.10
2019-06-26T20:12:44.109Z,20.00
2019-06-26T20:15:13.111Z,20.00
2019-06-26T20:17:41.934Z,20.00
2019-06-26T20:20:10.964Z,20.10
2019-06-26T20:22:39.537Z,20.10
2019-06-26T20:25:10.398Z,20.00
2019-06-26T20:27:39.221Z,20.00
2019-06-26T20:30:09.791Z,20.00
2019-06-26T20:32:38.880Z,20.00
2019-06-26T20:35:08.673Z,19.90
2019-06-26T20:37:37.372Z,19.90
2019-06-26T20:40:07.407Z,19.70
2019-06-26T20:42:36.093Z,19.60
2019-06-26T20:45:06.001Z,19.50
2019-06-26T20:47:34.631Z,19.40
2019-06-26T20:50:03.881Z,19.50
2019-06-26T20:52:32.481Z,19.50
2019-06-26T20:55:02.752Z,19.40
2019-06-26T20:57:31.313Z,19.40
2019-06-26T21:00:00.344Z,19.30
2019-06-26T21:02:29.231Z,19.30
2019-06-26T21:04:57.873Z,19.30
2019-06-26T21:07:26.486Z,19.20
2019-06-26T21:09:55.639Z,19.00
2019-06-26T21:12:24.396Z,19.00
2019-06-26T21:14:52.995Z,19.00
2019-06-26T21:17:25.440Z,18.90
2019-06-26T21:19:52.164Z,18.70
2019-06-26T21:22:20.765Z,18.60
2019-06-26T21:24:49.398Z,18.50
2019-06-26T21:27:18.356Z,18.50
2019-06-26T21:29:47.222Z,18.60
2019-06-26T21:32:15.902Z,18.70
2019-06-26T21:34:44.551Z,18.70
2019-06-26T21:37:13.222Z,18.70
2019-06-26T21:39:41.935Z,18.60
2019-06-26T21:42:10.744Z,18.60
2019-06-26T21:44:39.361Z,18.60
2019-06-26T21:47:07.984Z,18.70
2019-06-26T21:49:36.613Z,18.70
2019-06-26T21:52:05.293Z,18.70
2019-06-26T21:54:33.936Z,18.70
2019-06-26T21:57:02.553Z,18.70
2019-06-26T21:59:31.130Z,18.60
2019-06-26T22:01:59.873Z,18.50
2019-06-26T22:04:28.656Z,18.50
2019-06-26T22:06:57.363Z,18.60
2019-06-26T22:09:26.082Z,18.70
2019-06-26T22:11:54.849Z,18.70
2019-06-26T22:14:23.458Z,18.70
2019-06-26T22:16:52.168Z,18.60
2019-06-26T22:19:20.883Z,18.50
2019-06-26T22:21:49.623Z,18.30
2019-06-26T22:24:18.339Z,18.20
2019-06-26T22:26:47.043Z,18.20
2019-06-26T22:29:15.731Z,18.10
2019-06-26T22:31:44.439Z,18.10
2019-06-26T22:34:13.135Z,18.10
2019-06-26T22:36:51.455Z,18.10
2019-06-26T22:39:12.034Z,18.10
2019-06-26T22:41:40.672Z,18.20
2019-06-26T22:44:09.306Z,18.20
2019-06-26T22:46:38.009Z,18.30
2019-06-26T22:49:06.704Z,18.30
2019-06-26T22:51:35.442Z,18.30
2019-06-26T22:54:04.055Z,18.40
2019-06-26T22:56:32.702Z,18.40
2019-06-26T22:59:01.458Z,18.40
2019-06-26T23:01:30.140Z,18.40
2019-06-26T23:03:59.138Z,18.40
2019-06-26T23:06:27.815Z,18.30
2019-06-26T23:08:56.485Z,18.30
2019-06-26T23:11:25.098Z,18.40
2019-06-26T23:13:53.733Z,18.40
2019-06-26T23:16:22.651Z,18.30
2019-06-26T23:18:51.369Z,18.30
2019-06-26T23:21:20.139Z,18.30
2019-06-26T23:23:48.748Z,18.30
2019-06-26T23:26:24.129Z,18.20
2019-06-26T23:28:47.651Z,18.10
2019-06-26T23:31:16.335Z,18.20
2019-06-26T23:33:44.998Z,18.20
2019-06-26T23:36:13.810Z,18.20
2019-06-26T23:38:42.476Z,18.20
2019-06-26T23:41:11.047Z,18.20
2019-06-26T23:43:39.720Z,18.30
2019-06-26T23:46:08.376Z,18.30
2019-06-26T23:48:36.995Z,18.30
2019-06-26T23:51:05.615Z,18.30
2019-06-26T23:53:34.316Z,18.30
2019-06-26T23:56:02.923Z,18.30
2019-06-26T23:58:31.649Z,18.30
